Terminal Aerodrome Forecast
Issued by NWS

Home | Current Version | Previous Version | Text Only | Print | Product List | Glossary On
Versions: 1 2 3 4 5 6 7 8 9 10 11 12
675
FTUS46 KPDT 300520
TAFALW
TAF
KALW 300520Z 3006/3106 13006KT P6SM SCT150
     FM301700 23008KT P6SM SCT070 BKN200
     FM302300 24013G20KT P6SM -SHRA OVC060=

USA.gov is the U.S. government's official web portal to all federal, state and local government web resources and services.